sensor_id;sensor_type;location;lat;lon;timestamp;P1;durP1;ratioP1;P2;durP2;ratioP2
20399;SDS011;10359;53.596;22.520;2022-11-15T00:00:04;14.93;;;10.43;;
20399;SDS011;10359;53.596;22.520;2022-11-15T00:02:34;14.80;;;11.37;;
20399;SDS011;10359;53.596;22.520;2022-11-15T00:05:03;16.93;;;11.43;;
20399;SDS011;10359;53.596;22.520;2022-11-15T00:07:32;17.00;;;11.33;;
20399;SDS011;10359;53.596;22.520;2022-11-15T00:10:21;13.27;;;10.40;;
20399;SDS011;10359;53.596;22.520;2022-11-15T00:12:50;15.60;;;11.07;;
20399;SDS011;10359;53.596;22.520;2022-11-15T00:15:20;18.97;;;12.90;;
20399;SDS011;10359;53.596;22.520;2022-11-15T00:17:50;15.50;;;11.30;;
20399;SDS011;10359;53.596;22.520;2022-11-15T00:20:18;15.40;;;11.70;;
20399;SDS011;10359;53.596;22.520;2022-11-15T00:22:47;17.13;;;12.00;;
20399;SDS011;10359;53.596;22.520;2022-11-15T00:25:16;16.10;;;11.50;;
20399;SDS011;10359;53.596;22.520;2022-11-15T00:27:45;17.80;;;12.50;;
20399;SDS011;10359;53.596;22.520;2022-11-15T00:30:14;16.63;;;11.37;;
20399;SDS011;10359;53.596;22.520;2022-11-15T00:32:45;16.93;;;12.20;;
20399;SDS011;10359;53.596;22.520;2022-11-15T00:35:14;17.63;;;12.23;;
20399;SDS011;10359;53.596;22.520;2022-11-15T00:37:43;15.27;;;11.60;;
20399;SDS011;10359;53.596;22.520;2022-11-15T00:40:13;14.57;;;11.70;;
20399;SDS011;10359;53.596;22.520;2022-11-15T00:42:42;17.77;;;12.03;;
20399;SDS011;10359;53.596;22.520;2022-11-15T00:45:11;17.90;;;12.70;;
20399;SDS011;10359;53.596;22.520;2022-11-15T00:47:40;17.23;;;12.80;;
20399;SDS011;10359;53.596;22.520;2022-11-15T00:50:13;16.23;;;12.10;;
20399;SDS011;10359;53.596;22.520;2022-11-15T00:52:43;16.63;;;12.20;;
20399;SDS011;10359;53.596;22.520;2022-11-15T00:55:13;19.80;;;13.33;;
20399;SDS011;10359;53.596;22.520;2022-11-15T00:57:43;19.53;;;13.37;;
20399;SDS011;10359;53.596;22.520;2022-11-15T01:00:13;23.47;;;14.83;;
20399;SDS011;10359;53.596;22.520;2022-11-15T01:02:42;19.90;;;13.43;;
20399;SDS011;10359;53.596;22.520;2022-11-15T01:05:12;19.70;;;13.53;;
20399;SDS011;10359;53.596;22.520;2022-11-15T01:07:41;19.07;;;13.17;;
20399;SDS011;10359;53.596;22.520;2022-11-15T01:10:11;22.33;;;14.73;;
20399;SDS011;10359;53.596;22.520;2022-11-15T01:12:40;17.90;;;12.80;;
20399;SDS011;10359;53.596;22.520;2022-11-15T01:15:09;19.87;;;14.07;;
20399;SDS011;10359;53.596;22.520;2022-11-15T01:17:38;20.53;;;13.53;;
20399;SDS011;10359;53.596;22.520;2022-11-15T01:20:07;20.47;;;14.03;;
20399;SDS011;10359;53.596;22.520;2022-11-15T01:22:38;22.83;;;14.30;;
20399;SDS011;10359;53.596;22.520;2022-11-15T01:25:07;26.27;;;15.67;;
20399;SDS011;10359;53.596;22.520;2022-11-15T01:27:36;23.63;;;14.30;;
20399;SDS011;10359;53.596;22.520;2022-11-15T01:30:06;22.80;;;14.73;;
20399;SDS011;10359;53.596;22.520;2022-11-15T01:32:36;26.10;;;16.47;;
20399;SDS011;10359;53.596;22.520;2022-11-15T01:35:05;26.40;;;16.27;;
20399;SDS011;10359;53.596;22.520;2022-11-15T01:37:34;24.97;;;16.20;;
20399;SDS011;10359;53.596;22.520;2022-11-15T01:40:05;28.00;;;16.50;;
20399;SDS011;10359;53.596;22.520;2022-11-15T01:42:34;29.73;;;17.67;;
20399;SDS011;10359;53.596;22.520;2022-11-15T01:45:03;27.90;;;16.33;;
20399;SDS011;10359;53.596;22.520;2022-11-15T01:47:35;27.93;;;17.00;;
20399;SDS011;10359;53.596;22.520;2022-11-15T01:50:09;26.33;;;16.77;;
20399;SDS011;10359;53.596;22.520;2022-11-15T01:52:42;30.00;;;16.80;;
20399;SDS011;10359;53.596;22.520;2022-11-15T01:55:13;29.53;;;17.43;;
20399;SDS011;10359;53.596;22.520;2022-11-15T01:57:46;29.40;;;17.57;;
20399;SDS011;10359;53.596;22.520;2022-11-15T02:00:18;30.00;;;17.73;;
20399;SDS011;10359;53.596;22.520;2022-11-15T02:02:47;30.37;;;18.60;;
20399;SDS011;10359;53.596;22.520;2022-11-15T02:05:16;30.93;;;17.47;;
20399;SDS011;10359;53.596;22.520;2022-11-15T02:07:45;29.53;;;17.17;;
20399;SDS011;10359;53.596;22.520;2022-11-15T02:10:19;30.73;;;18.60;;
20399;SDS011;10359;53.596;22.520;2022-11-15T02:12:50;33.73;;;18.60;;
20399;SDS011;10359;53.596;22.520;2022-11-15T02:15:19;31.73;;;18.60;;
20399;SDS011;10359;53.596;22.520;2022-11-15T02:17:56;32.70;;;18.50;;
20399;SDS011;10359;53.596;22.520;2022-11-15T02:20:42;32.70;;;19.50;;
20399;SDS011;10359;53.596;22.520;2022-11-15T02:26:31;29.90;;;18.00;;
20399;SDS011;10359;53.596;22.520;2022-11-15T02:29:32;31.83;;;18.33;;
20399;SDS011;10359;53.596;22.520;2022-11-15T02:32:17;32.27;;;18.60;;
20399;SDS011;10359;53.596;22.520;2022-11-15T02:34:50;33.47;;;19.50;;
20399;SDS011;10359;53.596;22.520;2022-11-15T02:37:26;33.43;;;19.77;;
20399;SDS011;10359;53.596;22.520;2022-11-15T02:40:05;31.67;;;18.43;;
20399;SDS011;10359;53.596;22.520;2022-11-15T02:42:41;33.63;;;19.83;;
20399;SDS011;10359;53.596;22.520;2022-11-15T02:45:35;32.70;;;19.13;;
20399;SDS011;10359;53.596;22.520;2022-11-15T02:48:09;31.93;;;19.57;;
20399;SDS011;10359;53.596;22.520;2022-11-15T02:50:40;33.13;;;19.70;;
20399;SDS011;10359;53.596;22.520;2022-11-15T02:53:10;33.93;;;20.47;;
20399;SDS011;10359;53.596;22.520;2022-11-15T02:55:41;37.87;;;19.97;;
20399;SDS011;10359;53.596;22.520;2022-11-15T02:58:19;37.10;;;21.40;;
20399;SDS011;10359;53.596;22.520;2022-11-15T03:01:00;37.30;;;21.37;;
20399;SDS011;10359;53.596;22.520;2022-11-15T03:03:40;36.83;;;21.80;;
20399;SDS011;10359;53.596;22.520;2022-11-15T03:06:20;41.63;;;22.63;;
20399;SDS011;10359;53.596;22.520;2022-11-15T03:08:57;34.97;;;21.63;;
20399;SDS011;10359;53.596;22.520;2022-11-15T03:11:32;35.83;;;21.10;;
20399;SDS011;10359;53.596;22.520;2022-11-15T03:14:09;40.93;;;22.47;;
20399;SDS011;10359;53.596;22.520;2022-11-15T03:16:47;42.97;;;23.67;;
20399;SDS011;10359;53.596;22.520;2022-11-15T03:19:29;38.57;;;21.20;;
20399;SDS011;10359;53.596;22.520;2022-11-15T03:22:02;41.10;;;22.93;;
20399;SDS011;10359;53.596;22.520;2022-11-15T03:24:34;40.13;;;23.20;;
20399;SDS011;10359;53.596;22.520;2022-11-15T03:27:05;39.10;;;23.03;;
20399;SDS011;10359;53.596;22.520;2022-11-15T03:29:37;38.93;;;22.27;;
20399;SDS011;10359;53.596;22.520;2022-11-15T03:32:10;39.97;;;22.53;;
20399;SDS011;10359;53.596;22.520;2022-11-15T03:34:45;43.27;;;23.53;;
20399;SDS011;10359;53.596;22.520;2022-11-15T03:37:18;40.57;;;21.87;;
20399;SDS011;10359;53.596;22.520;2022-11-15T03:39:50;43.43;;;24.27;;
20399;SDS011;10359;53.596;22.520;2022-11-15T03:42:21;43.17;;;23.33;;
20399;SDS011;10359;53.596;22.520;2022-11-15T03:44:56;41.77;;;23.67;;
20399;SDS011;10359;53.596;22.520;2022-11-15T03:47:31;42.17;;;22.07;;
20399;SDS011;10359;53.596;22.520;2022-11-15T03:50:04;43.30;;;23.87;;
20399;SDS011;10359;53.596;22.520;2022-11-15T03:52:37;42.67;;;23.80;;
20399;SDS011;10359;53.596;22.520;2022-11-15T03:55:09;47.57;;;24.23;;
20399;SDS011;10359;53.596;22.520;2022-11-15T03:57:40;43.33;;;24.43;;
20399;SDS011;10359;53.596;22.520;2022-11-15T04:00:10;44.73;;;24.97;;
20399;SDS011;10359;53.596;22.520;2022-11-15T04:02:39;42.30;;;23.33;;
20399;SDS011;10359;53.596;22.520;2022-11-15T04:05:09;41.87;;;24.00;;
20399;SDS011;10359;53.596;22.520;2022-11-15T04:07:38;38.37;;;23.07;;
20399;SDS011;10359;53.596;22.520;2022-11-15T04:10:08;35.77;;;20.37;;
20399;SDS011;10359;53.596;22.520;2022-11-15T04:12:38;38.87;;;21.83;;
20399;SDS011;10359;53.596;22.520;2022-11-15T04:15:11;41.30;;;23.63;;
20399;SDS011;10359;53.596;22.520;2022-11-15T04:17:42;36.10;;;22.23;;
20399;SDS011;10359;53.596;22.520;2022-11-15T04:20:15;39.37;;;22.47;;
20399;SDS011;10359;53.596;22.520;2022-11-15T04:23:04;38.23;;;21.13;;
20399;SDS011;10359;53.596;22.520;2022-11-15T04:25:52;36.13;;;22.03;;
20399;SDS011;10359;53.596;22.520;2022-11-15T04:28:22;33.70;;;20.97;;
20399;SDS011;10359;53.596;22.520;2022-11-15T04:30:51;34.93;;;22.13;;
20399;SDS011;10359;53.596;22.520;2022-11-15T04:33:20;33.47;;;20.60;;
20399;SDS011;10359;53.596;22.520;2022-11-15T04:35:51;31.73;;;20.73;;
20399;SDS011;10359;53.596;22.520;2022-11-15T04:38:38;32.83;;;20.70;;
20399;SDS011;10359;53.596;22.520;2022-11-15T04:41:07;35.37;;;22.33;;
20399;SDS011;10359;53.596;22.520;2022-11-15T04:43:35;32.50;;;20.37;;
20399;SDS011;10359;53.596;22.520;2022-11-15T04:46:04;34.93;;;21.67;;
20399;SDS011;10359;53.596;22.520;2022-11-15T04:48:34;30.63;;;20.20;;
20399;SDS011;10359;53.596;22.520;2022-11-15T04:51:04;31.77;;;19.97;;
20399;SDS011;10359;53.596;22.520;2022-11-15T04:53:33;31.07;;;19.30;;
20399;SDS011;10359;53.596;22.520;2022-11-15T04:56:02;30.40;;;19.90;;
20399;SDS011;10359;53.596;22.520;2022-11-15T04:58:32;31.00;;;20.00;;
20399;SDS011;10359;53.596;22.520;2022-11-15T05:01:06;31.67;;;21.47;;
20399;SDS011;10359;53.596;22.520;2022-11-15T05:03:35;31.50;;;19.90;;
20399;SDS011;10359;53.596;22.520;2022-11-15T05:06:23;31.70;;;20.57;;
20399;SDS011;10359;53.596;22.520;2022-11-15T05:08:52;32.77;;;20.87;;
20399;SDS011;10359;53.596;22.520;2022-11-15T05:11:21;31.13;;;20.17;;
20399;SDS011;10359;53.596;22.520;2022-11-15T05:13:50;34.33;;;22.47;;
20399;SDS011;10359;53.596;22.520;2022-11-15T05:16:19;34.50;;;21.80;;
20399;SDS011;10359;53.596;22.520;2022-11-15T05:18:50;32.33;;;20.60;;
20399;SDS011;10359;53.596;22.520;2022-11-15T05:21:19;31.60;;;21.70;;
20399;SDS011;10359;53.596;22.520;2022-11-15T05:23:50;33.10;;;21.33;;
20399;SDS011;10359;53.596;22.520;2022-11-15T05:26:19;30.17;;;19.47;;
20399;SDS011;10359;53.596;22.520;2022-11-15T05:28:51;34.17;;;22.40;;
20399;SDS011;10359;53.596;22.520;2022-11-15T05:31:21;34.80;;;21.73;;
20399;SDS011;10359;53.596;22.520;2022-11-15T05:33:51;36.13;;;22.90;;
20399;SDS011;10359;53.596;22.520;2022-11-15T05:36:24;33.23;;;22.10;;
20399;SDS011;10359;53.596;22.520;2022-11-15T05:38:58;34.33;;;22.50;;
20399;SDS011;10359;53.596;22.520;2022-11-15T05:41:29;37.37;;;23.73;;
20399;SDS011;10359;53.596;22.520;2022-11-15T05:44:01;35.10;;;21.83;;
20399;SDS011;10359;53.596;22.520;2022-11-15T05:46:34;38.43;;;22.70;;
20399;SDS011;10359;53.596;22.520;2022-11-15T05:49:05;35.83;;;22.57;;
20399;SDS011;10359;53.596;22.520;2022-11-15T05:51:38;37.13;;;23.00;;
20399;SDS011;10359;53.596;22.520;2022-11-15T05:54:09;33.30;;;22.37;;
20399;SDS011;10359;53.596;22.520;2022-11-15T05:56:39;35.93;;;22.60;;
20399;SDS011;10359;53.596;22.520;2022-11-15T05:59:08;33.70;;;22.17;;
20399;SDS011;10359;53.596;22.520;2022-11-15T06:01:37;36.00;;;22.40;;
20399;SDS011;10359;53.596;22.520;2022-11-15T06:04:07;36.33;;;22.97;;
20399;SDS011;10359;53.596;22.520;2022-11-15T06:06:36;36.97;;;24.00;;
20399;SDS011;10359;53.596;22.520;2022-11-15T06:09:05;37.20;;;22.73;;
20399;SDS011;10359;53.596;22.520;2022-11-15T06:11:35;38.13;;;22.83;;
20399;SDS011;10359;53.596;22.520;2022-11-15T06:14:04;37.60;;;24.20;;
20399;SDS011;10359;53.596;22.520;2022-11-15T06:16:33;35.40;;;22.67;;
20399;SDS011;10359;53.596;22.520;2022-11-15T06:19:03;38.47;;;23.67;;
20399;SDS011;10359;53.596;22.520;2022-11-15T06:21:33;38.17;;;23.97;;
20399;SDS011;10359;53.596;22.520;2022-11-15T06:24:02;39.20;;;24.30;;
20399;SDS011;10359;53.596;22.520;2022-11-15T06:26:32;42.97;;;24.80;;
20399;SDS011;10359;53.596;22.520;2022-11-15T06:29:03;37.73;;;23.20;;
20399;SDS011;10359;53.596;22.520;2022-11-15T06:31:33;35.83;;;23.13;;
20399;SDS011;10359;53.596;22.520;2022-11-15T06:34:02;42.17;;;23.43;;
20399;SDS011;10359;53.596;22.520;2022-11-15T06:36:31;39.40;;;23.97;;
20399;SDS011;10359;53.596;22.520;2022-11-15T06:39:03;35.90;;;22.13;;
20399;SDS011;10359;53.596;22.520;2022-11-15T06:41:33;39.27;;;23.87;;
20399;SDS011;10359;53.596;22.520;2022-11-15T06:44:04;40.63;;;23.23;;
20399;SDS011;10359;53.596;22.520;2022-11-15T06:46:33;38.73;;;23.20;;
20399;SDS011;10359;53.596;22.520;2022-11-15T06:49:02;40.00;;;24.10;;
20399;SDS011;10359;53.596;22.520;2022-11-15T06:51:35;41.30;;;24.90;;
20399;SDS011;10359;53.596;22.520;2022-11-15T06:54:05;39.87;;;23.60;;
20399;SDS011;10359;53.596;22.520;2022-11-15T06:56:33;39.77;;;24.10;;
20399;SDS011;10359;53.596;22.520;2022-11-15T06:59:04;41.57;;;23.13;;
20399;SDS011;10359;53.596;22.520;2022-11-15T07:01:33;41.47;;;25.30;;
20399;SDS011;10359;53.596;22.520;2022-11-15T07:04:02;43.53;;;24.87;;
20399;SDS011;10359;53.596;22.520;2022-11-15T07:06:31;41.37;;;25.17;;
20399;SDS011;10359;53.596;22.520;2022-11-15T07:09:01;43.87;;;25.03;;
20399;SDS011;10359;53.596;22.520;2022-11-15T07:11:30;40.63;;;24.10;;
20399;SDS011;10359;53.596;22.520;2022-11-15T07:14:01;40.53;;;24.13;;
20399;SDS011;10359;53.596;22.520;2022-11-15T07:16:31;36.77;;;23.47;;
20399;SDS011;10359;53.596;22.520;2022-11-15T07:19:00;40.17;;;24.20;;
20399;SDS011;10359;53.596;22.520;2022-11-15T07:21:29;40.03;;;23.83;;
20399;SDS011;10359;53.596;22.520;2022-11-15T07:23:58;43.03;;;25.77;;
20399;SDS011;10359;53.596;22.520;2022-11-15T07:26:27;39.07;;;24.13;;
20399;SDS011;10359;53.596;22.520;2022-11-15T07:28:56;40.50;;;24.47;;
20399;SDS011;10359;53.596;22.520;2022-11-15T07:31:25;41.90;;;24.83;;
20399;SDS011;10359;53.596;22.520;2022-11-15T07:33:56;39.87;;;22.87;;
20399;SDS011;10359;53.596;22.520;2022-11-15T07:36:24;40.13;;;24.47;;
20399;SDS011;10359;53.596;22.520;2022-11-15T07:38:53;36.80;;;23.77;;
20399;SDS011;10359;53.596;22.520;2022-11-15T07:41:22;42.43;;;24.20;;
20399;SDS011;10359;53.596;22.520;2022-11-15T07:43:51;41.27;;;24.60;;
20399;SDS011;10359;53.596;22.520;2022-11-15T07:46:20;41.23;;;24.23;;
20399;SDS011;10359;53.596;22.520;2022-11-15T07:48:49;39.33;;;24.43;;
20399;SDS011;10359;53.596;22.520;2022-11-15T07:51:19;40.87;;;24.00;;
20399;SDS011;10359;53.596;22.520;2022-11-15T07:53:48;68.77;;;38.70;;
20399;SDS011;10359;53.596;22.520;2022-11-15T07:56:17;45.13;;;26.17;;
20399;SDS011;10359;53.596;22.520;2022-11-15T07:58:47;80.10;;;51.70;;
20399;SDS011;10359;53.596;22.520;2022-11-15T08:01:16;39.20;;;24.37;;
20399;SDS011;10359;53.596;22.520;2022-11-15T08:03:46;38.53;;;24.30;;
20399;SDS011;10359;53.596;22.520;2022-11-15T08:06:16;41.57;;;24.70;;
20399;SDS011;10359;53.596;22.520;2022-11-15T08:08:47;42.47;;;25.53;;
20399;SDS011;10359;53.596;22.520;2022-11-15T08:11:16;38.10;;;22.90;;
20399;SDS011;10359;53.596;22.520;2022-11-15T08:13:45;37.40;;;23.83;;
20399;SDS011;10359;53.596;22.520;2022-11-15T08:16:14;33.63;;;21.33;;
20399;SDS011;10359;53.596;22.520;2022-11-15T08:18:43;29.93;;;19.60;;
20399;SDS011;10359;53.596;22.520;2022-11-15T08:21:12;36.60;;;20.07;;
20399;SDS011;10359;53.596;22.520;2022-11-15T08:23:45;34.80;;;21.13;;
20399;SDS011;10359;53.596;22.520;2022-11-15T08:26:16;33.77;;;19.63;;
20399;SDS011;10359;53.596;22.520;2022-11-15T08:28:45;34.30;;;19.60;;
20399;SDS011;10359;53.596;22.520;2022-11-15T08:31:14;31.00;;;19.00;;
20399;SDS011;10359;53.596;22.520;2022-11-15T08:33:45;33.20;;;19.10;;
20399;SDS011;10359;53.596;22.520;2022-11-15T08:36:15;35.87;;;19.97;;
20399;SDS011;10359;53.596;22.520;2022-11-15T08:38:44;32.83;;;18.70;;
20399;SDS011;10359;53.596;22.520;2022-11-15T08:41:16;31.43;;;19.87;;
20399;SDS011;10359;53.596;22.520;2022-11-15T08:43:53;34.73;;;20.17;;
20399;SDS011;10359;53.596;22.520;2022-11-15T08:46:22;31.03;;;19.70;;
20399;SDS011;10359;53.596;22.520;2022-11-15T08:48:52;33.30;;;20.07;;
20399;SDS011;10359;53.596;22.520;2022-11-15T08:51:21;36.50;;;19.70;;
20399;SDS011;10359;53.596;22.520;2022-11-15T08:53:50;34.23;;;19.13;;
20399;SDS011;10359;53.596;22.520;2022-11-15T08:56:20;35.70;;;20.50;;
20399;SDS011;10359;53.596;22.520;2022-11-15T08:58:49;36.53;;;20.57;;
20399;SDS011;10359;53.596;22.520;2022-11-15T09:01:19;36.53;;;19.77;;
20399;SDS011;10359;53.596;22.520;2022-11-15T09:03:48;36.40;;;21.53;;
20399;SDS011;10359;53.596;22.520;2022-11-15T09:06:17;36.03;;;20.07;;
20399;SDS011;10359;53.596;22.520;2022-11-15T09:08:46;34.37;;;19.97;;
20399;SDS011;10359;53.596;22.520;2022-11-15T09:11:16;35.37;;;20.20;;
20399;SDS011;10359;53.596;22.520;2022-11-15T09:13:48;35.50;;;19.47;;
20399;SDS011;10359;53.596;22.520;2022-11-15T09:16:18;37.27;;;20.90;;
20399;SDS011;10359;53.596;22.520;2022-11-15T09:18:47;35.93;;;20.50;;
20399;SDS011;10359;53.596;22.520;2022-11-15T09:21:16;35.57;;;20.43;;
20399;SDS011;10359;53.596;22.520;2022-11-15T09:23:44;37.30;;;20.90;;
20399;SDS011;10359;53.596;22.520;2022-11-15T09:26:13;35.10;;;19.57;;
20399;SDS011;10359;53.596;22.520;2022-11-15T09:28:42;35.83;;;19.93;;
20399;SDS011;10359;53.596;22.520;2022-11-15T09:31:13;38.20;;;20.23;;
20399;SDS011;10359;53.596;22.520;2022-11-15T09:33:47;33.50;;;19.10;;
20399;SDS011;10359;53.596;22.520;2022-11-15T09:36:16;34.97;;;20.43;;
20399;SDS011;10359;53.596;22.520;2022-11-15T09:38:46;34.30;;;18.63;;
20399;SDS011;10359;53.596;22.520;2022-11-15T09:44:37;57.40;;;33.33;;
20399;SDS011;10359;53.596;22.520;2022-11-15T09:47:20;35.07;;;19.70;;
20399;SDS011;10359;53.596;22.520;2022-11-15T09:50:17;32.90;;;19.80;;
20399;SDS011;10359;53.596;22.520;2022-11-15T09:52:54;38.50;;;20.63;;
20399;SDS011;10359;53.596;22.520;2022-11-15T09:55:26;36.30;;;20.50;;
20399;SDS011;10359;53.596;22.520;2022-11-15T09:58:07;40.00;;;20.50;;
20399;SDS011;10359;53.596;22.520;2022-11-15T10:00:45;36.23;;;20.03;;
20399;SDS011;10359;53.596;22.520;2022-11-15T10:03:23;34.17;;;19.00;;
20399;SDS011;10359;53.596;22.520;2022-11-15T10:05:56;35.80;;;19.33;;
20399;SDS011;10359;53.596;22.520;2022-11-15T10:08:46;37.90;;;19.20;;
20399;SDS011;10359;53.596;22.520;2022-11-15T10:11:23;32.93;;;19.50;;
20399;SDS011;10359;53.596;22.520;2022-11-15T10:14:10;34.50;;;19.77;;
20399;SDS011;10359;53.596;22.520;2022-11-15T10:16:49;32.83;;;18.47;;
20399;SDS011;10359;53.596;22.520;2022-11-15T10:19:50;46.93;;;20.97;;
20399;SDS011;10359;53.596;22.520;2022-11-15T10:22:32;38.47;;;19.90;;
20399;SDS011;10359;53.596;22.520;2022-11-15T10:25:10;35.87;;;18.90;;
20399;SDS011;10359;53.596;22.520;2022-11-15T10:27:51;33.07;;;18.60;;
20399;SDS011;10359;53.596;22.520;2022-11-15T10:30:23;35.83;;;20.07;;
20399;SDS011;10359;53.596;22.520;2022-11-15T10:32:58;36.70;;;20.27;;
20399;SDS011;10359;53.596;22.520;2022-11-15T10:35:41;37.60;;;19.43;;
20399;SDS011;10359;53.596;22.520;2022-11-15T10:38:10;39.53;;;21.43;;
20399;SDS011;10359;53.596;22.520;2022-11-15T10:40:40;33.57;;;19.83;;
20399;SDS011;10359;53.596;22.520;2022-11-15T10:43:15;37.40;;;19.60;;
20399;SDS011;10359;53.596;22.520;2022-11-15T10:45:46;36.07;;;18.53;;
20399;SDS011;10359;53.596;22.520;2022-11-15T10:48:20;35.27;;;18.93;;
20399;SDS011;10359;53.596;22.520;2022-11-15T10:50:53;39.73;;;20.30;;
20399;SDS011;10359;53.596;22.520;2022-11-15T10:53:24;37.43;;;21.10;;
20399;SDS011;10359;53.596;22.520;2022-11-15T10:55:59;37.47;;;20.60;;
20399;SDS011;10359;53.596;22.520;2022-11-15T10:58:32;38.30;;;21.13;;
20399;SDS011;10359;53.596;22.520;2022-11-15T11:01:10;41.43;;;21.00;;
20399;SDS011;10359;53.596;22.520;2022-11-15T11:03:42;42.33;;;21.90;;
20399;SDS011;10359;53.596;22.520;2022-11-15T11:06:14;45.33;;;21.50;;
20399;SDS011;10359;53.596;22.520;2022-11-15T11:08:54;43.43;;;21.70;;
20399;SDS011;10359;53.596;22.520;2022-11-15T11:11:25;44.93;;;21.17;;
20399;SDS011;10359;53.596;22.520;2022-11-15T11:14:11;38.63;;;19.40;;
20399;SDS011;10359;53.596;22.520;2022-11-15T11:16:44;39.53;;;20.53;;
20399;SDS011;10359;53.596;22.520;2022-11-15T11:19:25;35.23;;;18.23;;
20399;SDS011;10359;53.596;22.520;2022-11-15T11:22:15;36.00;;;17.97;;
20399;SDS011;10359;53.596;22.520;2022-11-15T11:24:54;33.73;;;17.50;;
20399;SDS011;10359;53.596;22.520;2022-11-15T11:27:38;41.17;;;20.07;;
20399;SDS011;10359;53.596;22.520;2022-11-15T11:30:14;45.80;;;23.93;;
20399;SDS011;10359;53.596;22.520;2022-11-15T11:32:49;49.60;;;25.30;;
20399;SDS011;10359;53.596;22.520;2022-11-15T11:35:29;40.47;;;20.20;;
20399;SDS011;10359;53.596;22.520;2022-11-15T11:38:09;40.30;;;20.40;;
20399;SDS011;10359;53.596;22.520;2022-11-15T11:40:59;36.57;;;18.80;;
20399;SDS011;10359;53.596;22.520;2022-11-15T11:43:36;36.53;;;18.80;;
20399;SDS011;10359;53.596;22.520;2022-11-15T11:46:26;38.33;;;20.67;;
20399;SDS011;10359;53.596;22.520;2022-11-15T11:49:04;35.83;;;18.63;;
20399;SDS011;10359;53.596;22.520;2022-11-15T11:51:38;32.67;;;17.57;;
20399;SDS011;10359;53.596;22.520;2022-11-15T11:54:14;34.70;;;17.77;;
20399;SDS011;10359;53.596;22.520;2022-11-15T11:56:48;30.70;;;16.93;;
20399;SDS011;10359;53.596;22.520;2022-11-15T11:59:21;33.73;;;16.83;;
20399;SDS011;10359;53.596;22.520;2022-11-15T12:01:53;31.00;;;16.53;;
20399;SDS011;10359;53.596;22.520;2022-11-15T12:04:24;28.17;;;17.23;;
20399;SDS011;10359;53.596;22.520;2022-11-15T12:06:59;25.73;;;15.13;;
20399;SDS011;10359;53.596;22.520;2022-11-15T12:09:33;32.87;;;16.50;;
20399;SDS011;10359;53.596;22.520;2022-11-15T12:12:07;26.37;;;16.10;;
20399;SDS011;10359;53.596;22.520;2022-11-15T12:14:43;31.37;;;17.23;;
20399;SDS011;10359;53.596;22.520;2022-11-15T12:17:19;29.43;;;16.83;;
20399;SDS011;10359;53.596;22.520;2022-11-15T12:19:51;33.03;;;18.23;;
20399;SDS011;10359;53.596;22.520;2022-11-15T12:22:26;28.10;;;16.97;;
20399;SDS011;10359;53.596;22.520;2022-11-15T12:25:07;28.97;;;15.80;;
20399;SDS011;10359;53.596;22.520;2022-11-15T12:27:44;32.97;;;16.27;;
20399;SDS011;10359;53.596;22.520;2022-11-15T12:30:17;29.87;;;16.57;;
20399;SDS011;10359;53.596;22.520;2022-11-15T12:32:49;25.27;;;15.07;;
20399;SDS011;10359;53.596;22.520;2022-11-15T12:35:23;26.53;;;14.50;;
20399;SDS011;10359;53.596;22.520;2022-11-15T12:37:55;29.90;;;15.50;;
20399;SDS011;10359;53.596;22.520;2022-11-15T12:40:27;27.30;;;15.37;;
20399;SDS011;10359;53.596;22.520;2022-11-15T12:43:02;27.93;;;15.47;;
20399;SDS011;10359;53.596;22.520;2022-11-15T12:45:46;28.20;;;15.57;;
20399;SDS011;10359;53.596;22.520;2022-11-15T12:54:51;22.37;;;13.30;;
20399;SDS011;10359;53.596;22.520;2022-11-15T12:57:33;25.53;;;13.50;;
20399;SDS011;10359;53.596;22.520;2022-11-15T13:06:36;24.83;;;13.40;;
20399;SDS011;10359;53.596;22.520;2022-11-15T13:12:47;27.20;;;12.97;;
20399;SDS011;10359;53.596;22.520;2022-11-15T13:18:31;27.90;;;14.30;;
20399;SDS011;10359;53.596;22.520;2022-11-15T13:21:03;28.43;;;14.33;;
20399;SDS011;10359;53.596;22.520;2022-11-15T13:23:54;24.83;;;14.27;;
20399;SDS011;10359;53.596;22.520;2022-11-15T13:26:24;29.10;;;14.33;;
20399;SDS011;10359;53.596;22.520;2022-11-15T13:28:54;31.80;;;16.00;;
20399;SDS011;10359;53.596;22.520;2022-11-15T13:31:25;24.90;;;13.77;;
20399;SDS011;10359;53.596;22.520;2022-11-15T13:33:57;30.07;;;15.50;;
20399;SDS011;10359;53.596;22.520;2022-11-15T13:36:43;27.80;;;14.17;;
20399;SDS011;10359;53.596;22.520;2022-11-15T13:39:12;33.70;;;15.50;;
20399;SDS011;10359;53.596;22.520;2022-11-15T13:41:54;28.37;;;15.27;;
20399;SDS011;10359;53.596;22.520;2022-11-15T13:44:26;31.37;;;15.60;;
20399;SDS011;10359;53.596;22.520;2022-11-15T13:47:03;33.77;;;16.10;;
20399;SDS011;10359;53.596;22.520;2022-11-15T13:49:34;31.90;;;16.27;;
20399;SDS011;10359;53.596;22.520;2022-11-15T13:52:04;30.10;;;15.93;;
20399;SDS011;10359;53.596;22.520;2022-11-15T13:54:35;25.90;;;14.00;;
20399;SDS011;10359;53.596;22.520;2022-11-15T13:57:10;28.53;;;14.60;;
20399;SDS011;10359;53.596;22.520;2022-11-15T13:59:45;30.93;;;14.37;;
20399;SDS011;10359;53.596;22.520;2022-11-15T14:02:16;28.07;;;14.00;;
20399;SDS011;10359;53.596;22.520;2022-11-15T14:04:48;28.37;;;14.60;;
20399;SDS011;10359;53.596;22.520;2022-11-15T14:07:21;23.50;;;12.57;;
20399;SDS011;10359;53.596;22.520;2022-11-15T14:09:51;29.07;;;13.13;;
20399;SDS011;10359;53.596;22.520;2022-11-15T14:12:24;35.87;;;13.67;;
20399;SDS011;10359;53.596;22.520;2022-11-15T14:17:52;29.20;;;13.87;;
20399;SDS011;10359;53.596;22.520;2022-11-15T14:20:29;24.43;;;13.03;;
20399;SDS011;10359;53.596;22.520;2022-11-15T14:23:00;23.90;;;12.57;;
20399;SDS011;10359;53.596;22.520;2022-11-15T14:25:30;27.23;;;13.27;;
20399;SDS011;10359;53.596;22.520;2022-11-15T14:28:11;27.60;;;13.83;;
20399;SDS011;10359;53.596;22.520;2022-11-15T14:31:02;32.57;;;13.20;;
20399;SDS011;10359;53.596;22.520;2022-11-15T14:33:39;25.90;;;13.97;;
20399;SDS011;10359;53.596;22.520;2022-11-15T14:36:11;29.90;;;14.27;;
20399;SDS011;10359;53.596;22.520;2022-11-15T14:38:41;31.33;;;13.77;;
20399;SDS011;10359;53.596;22.520;2022-11-15T14:41:16;26.87;;;13.47;;
20399;SDS011;10359;53.596;22.520;2022-11-15T14:43:47;30.10;;;14.13;;
20399;SDS011;10359;53.596;22.520;2022-11-15T14:46:18;36.07;;;14.20;;
20399;SDS011;10359;53.596;22.520;2022-11-15T14:48:47;26.87;;;13.90;;
20399;SDS011;10359;53.596;22.520;2022-11-15T14:51:16;24.17;;;13.70;;
20399;SDS011;10359;53.596;22.520;2022-11-15T14:53:46;37.13;;;14.73;;
20399;SDS011;10359;53.596;22.520;2022-11-15T14:56:15;27.23;;;13.70;;
20399;SDS011;10359;53.596;22.520;2022-11-15T14:58:44;26.00;;;14.30;;
20399;SDS011;10359;53.596;22.520;2022-11-15T15:01:14;30.07;;;15.27;;
20399;SDS011;10359;53.596;22.520;2022-11-15T15:03:48;32.43;;;15.27;;
20399;SDS011;10359;53.596;22.520;2022-11-15T15:06:18;29.57;;;13.20;;
20399;SDS011;10359;53.596;22.520;2022-11-15T15:08:47;34.60;;;14.10;;